CheckWX is a tool to help pilots better visualize weather data.  It is not intended as a substitute for an official pre-flight weather briefing.

06:23:39 UTC

CYZV TAF
Sept-Îles Airport
Sept-Îles, Canada
TAF CYZV 220538Z 2206/2306 28005KT 1/8SM FG VV001 BECMG 2206/2208 P6SM NSW FEW008 SCT030 FM221200 29008KT P6SM FEW030 BECMG 2220/2222 34008KT BECMG 2300/2302 03008KT RMK NXT FCST BY 221200Z

Apr-22@
06:00 UTC

Apr-22 @ 06:00 UTC

Apr-23@
06:00 UTC

Apr-23 @ 06:00 UTC

TAF CYZV 220538Z 2206/2306 28005KT 1/8SM FG VV001
Wind
  • 280° at 5 KTS
Conditions
Fog
Cloud Levels
  • Vertical visibility at 100' AGL

Apr-22@
06:00 UTC

Apr-22 @ 06:00 UTC

Apr-22@
12:00 UTC

Apr-22 @ 12:00 UTC

BECMG 2206/2208 P6SM NSW FEW008 SCT030

Becoming

Becoming Conditions expected by Mon, Apr 22, 2019 @ 08:00 UTC

Wind
  • 280° at 5 KTS
Conditions
No significant weather
Cloud Levels
  • Few at 800' AGL
  • Scattered at 3,000' AGL

Apr-22@
12:00 UTC

Apr-22 @ 12:00 UTC

Apr-22@
20:00 UTC

Apr-22 @ 20:00 UTC

FM221200 29008KT P6SM FEW030

From

From Standard forecast or significant change

Wind
  • 290° at 8 KTS
Cloud Levels
  • Few at 3,000' AGL

Apr-22@
20:00 UTC

Apr-22 @ 20:00 UTC

Apr-23@
00:00 UTC

Apr-23 @ 00:00 UTC

BECMG 2220/2222 34008KT

Becoming

Becoming Conditions expected by Mon, Apr 22, 2019 @ 22:00 UTC

Wind
  • 340° at 8 KTS
Cloud Levels
  • Few at 3,000' AGL

Apr-23@
00:00 UTC

Apr-23 @ 00:00 UTC

Apr-23@
06:00 UTC

Apr-23 @ 06:00 UTC

BECMG 2300/2302 03008KT RMK NXT FCST BY 221200Z

Becoming

Becoming Conditions expected by Tue, Apr 23, 2019 @ 02:00 UTC

Wind
  • 030° at 8 KTS
Cloud Levels
  • Few at 3,000' AGL